Time;durP1;ratioP1;P1;durP2;ratioP2;P2;SDS_P1;SDS_P2;PMS_P1;PMS_P2;Temp;Humidity;BMP_temperature;BMP_pressure;BME280_temperature;BME280_humidity;BME280_pressure;Samples;Min_cycle;Max_cycle;Signal;HPM_P1;HPM_P2
2023/04/02 00:01:50;;;;;;;6.03;4.28;;;5.70;99.90;;;;;;6079222;23;89481;-77
2023/04/02 00:04:23;;;;;;;6.78;4.68;;;5.70;99.90;;;;;;6128741;23;89360;-77
2023/04/02 00:06:55;;;;;;;6.07;3.92;;;5.70;99.90;;;;;;6103301;23;88614;-77
2023/04/02 00:09:32;;;;;;;6.53;4.28;;;5.70;99.90;;;;;;6102547;23;88301;-77
2023/04/02 00:12:14;;;;;;;5.60;4.60;;;5.70;99.90;;;;;;6101493;23;92951;-77
2023/04/02 00:14:46;;;;;;;5.72;4.10;;;5.70;99.90;;;;;;6128786;23;87989;-77
2023/04/02 00:17:13;;;;;;;5.45;4.22;;;5.60;99.90;;;;;;6102225;23;88822;-77
2023/04/02 00:19:52;;;;;;;6.18;4.60;;;5.50;99.90;;;;;;6078288;23;88723;-77
2023/04/02 00:22:30;;;;;;;6.20;4.90;;;5.60;99.90;;;;;;6102491;23;90274;-77
2023/04/02 00:25:00;;;;;;;4.45;4.03;;;5.50;99.90;;;;;;6128880;23;88105;-76
2023/04/02 00:27:29;;;;;;;4.68;3.45;;;5.50;99.90;;;;;;6101789;23;92225;-77
2023/04/02 00:29:58;;;;;;;5.60;4.97;;;5.50;99.90;;;;;;6077979;23;91034;-77
2023/04/02 00:32:31;;;;;;;6.57;4.43;;;5.40;99.90;;;;;;6102374;23;88029;-77
2023/04/02 00:34:59;;;;;;;4.22;3.25;;;5.40;99.90;;;;;;6128889;23;88103;-77
2023/04/02 00:37:29;;;;;;;5.20;4.28;;;5.30;99.90;;;;;;6052954;23;92097;-77
2023/04/02 00:40:01;;;;;;;4.97;3.85;;;5.30;99.90;;;;;;6101775;23;91838;-77
2023/04/02 00:42:30;;;;;;;6.68;3.60;;;5.20;99.90;;;;;;6128581;23;87968;-77
2023/04/02 00:44:58;;;;;;;7.53;3.83;;;5.10;99.90;;;;;;6077569;23;90731;-77
2023/04/02 00:47:32;;;;;;;6.28;3.58;;;5.00;99.90;;;;;;6101641;23;91320;-76
2023/04/02 00:50:05;;;;;;;6.00;4.20;;;4.90;99.90;;;;;;6102260;23;91578;-77
2023/04/02 00:52:34;;;;;;;4.82;3.95;;;4.70;99.90;;;;;;6077373;23;89519;-76
2023/04/02 00:55:20;;;;;;;4.93;3.70;;;4.60;99.90;;;;;;6129025;23;88336;-76
2023/04/02 00:57:49;;;;;;;6.63;3.60;;;4.50;99.90;;;;;;6128739;23;88707;-76
2023/04/02 01:00:32;;;;;;;4.35;3.90;;;4.40;99.90;;;;;;6128253;23;88536;-76
2023/04/02 01:03:21;;;;;;;8.20;4.07;;;4.30;99.90;;;;;;6128227;23;88602;-76
2023/04/02 01:05:55;;;;;;;7.05;3.00;;;4.20;99.90;;;;;;6102287;23;91464;-76
2023/04/02 01:08:30;;;;;;;7.90;4.20;;;4.10;99.90;;;;;;6128369;23;88587;-76
2023/04/02 01:11:34;;;;;;;8.30;4.03;;;4.00;99.90;;;;;;6101839;23;91223;-76
2023/04/02 01:14:31;;;;;;;5.00;3.47;;;4.00;99.90;;;;;;6102047;23;89421;-76
2023/04/02 01:17:18;;;;;;;5.80;3.28;;;3.90;99.90;;;;;;6102358;23;88301;-76
2023/04/02 01:19:57;;;;;;;6.78;3.10;;;3.80;99.90;;;;;;6128407;23;88635;-76
2023/04/02 01:22:34;;;;;;;5.10;4.03;;;3.80;99.90;;;;;;6128936;23;88600;-76
2023/04/02 01:25:05;;;;;;;4.45;2.60;;;3.70;99.90;;;;;;6102356;23;88120;-76
2023/04/02 01:27:42;;;;;;;8.68;3.42;;;3.60;99.90;;;;;;6101754;23;90934;-77
2023/04/02 01:30:11;;;;;;;7.18;3.28;;;3.60;99.90;;;;;;6101824;23;89413;-76
2023/04/02 01:32:39;;;;;;;6.90;3.35;;;3.60;99.90;;;;;;6101336;23;90887;-76
2023/04/02 01:35:08;;;;;;;7.50;3.60;;;3.50;99.90;;;;;;6077610;23;89563;-76
2023/04/02 01:37:48;;;;;;;7.28;3.58;;;3.50;99.90;;;;;;6101846;23;88512;-76
2023/04/02 01:40:30;;;;;;;6.10;3.67;;;3.50;99.90;;;;;;6079274;23;91292;-76
2023/04/02 01:43:31;;;;;;;6.53;3.40;;;3.40;99.90;;;;;;6101936;23;90989;-76
2023/04/02 01:45:59;;;;;;;9.93;4.68;;;3.40;99.90;;;;;;6102118;23;89191;-76
2023/04/02 01:48:29;;;;;;;4.93;3.00;;;3.30;99.90;;;;;;6128546;23;88167;-76
2023/04/02 01:50:59;;;;;;;7.05;3.90;;;3.30;99.90;;;;;;6077466;23;89964;-76
2023/04/02 01:53:29;;;;;;;3.55;3.22;;;3.20;99.90;;;;;;6101563;23;90815;-76
2023/04/02 01:55:59;;;;;;;8.15;4.13;;;3.20;99.90;;;;;;6101184;23;89154;-76
2023/04/02 01:58:30;;;;;;;3.90;2.63;;;3.20;99.90;;;;;;6077319;23;91085;-76
2023/04/02 02:01:10;;;;;;;6.35;3.63;;;3.10;99.90;;;;;;6101489;23;89673;-76
2023/04/02 02:03:40;;;;;;;5.00;3.50;;;3.10;99.90;;;;;;6101498;23;90746;-76
2023/04/02 02:06:13;;;;;;;7.05;3.53;;;3.00;99.90;;;;;;6101202;23;89035;-76
2023/04/02 02:09:06;;;;;;;6.38;3.20;;;3.00;99.90;;;;;;6101610;23;91039;-76
2023/04/02 02:11:35;;;;;;;7.78;4.20;;;3.00;99.90;;;;;;6097374;23;91300;-76
2023/04/02 02:14:15;;;;;;;6.70;3.58;;;2.90;99.90;;;;;;6102024;23;91201;-76
2023/04/02 02:16:44;;;;;;;7.35;3.58;;;3.00;99.90;;;;;;6077263;23;89086;-76
2023/04/02 02:19:20;;;;;;;4.82;3.78;;;2.90;99.90;;;;;;6128219;23;88396;-76
2023/04/02 02:21:53;;;;;;;3.85;3.00;;;2.90;99.90;;;;;;6101120;23;92137;-76
2023/04/02 02:24:25;;;;;;;7.35;4.00;;;2.90;99.90;;;;;;6101616;23;91031;-76
2023/04/02 02:27:11;;;;;;;9.68;3.63;;;2.90;99.90;;;;;;6077439;23;89198;-76
2023/04/02 02:29:41;;;;;;;4.70;3.47;;;2.90;99.90;;;;;;6101492;23;90653;-76
2023/04/02 02:32:11;;;;;;;4.60;3.08;;;2.80;99.90;;;;;;6101248;23;91912;-76
2023/04/02 02:34:51;;;;;;;4.57;2.70;;;2.80;99.90;;;;;;6101262;23;90654;-76
2023/04/02 02:37:23;;;;;;;8.52;3.72;;;2.70;99.90;;;;;;6101839;23;89583;-76
2023/04/02 02:39:56;;;;;;;4.40;2.88;;;2.70;99.90;;;;;;6077627;23;90580;-76
2023/04/02 02:42:31;;;;;;;4.97;2.83;;;2.60;99.90;;;;;;6077539;23;91046;-76
2023/04/02 02:45:01;;;;;;;5.50;2.88;;;2.60;99.90;;;;;;6077401;23;90837;-76
2023/04/02 02:47:31;;;;;;;4.18;2.30;;;2.60;99.90;;;;;;6127354;23;88762;-76
2023/04/02 02:50:16;;;;;;;4.90;2.40;;;2.60;99.90;;;;;;6101819;23;90867;-76
2023/04/02 02:52:49;;;;;;;5.50;2.60;;;2.60;99.90;;;;;;6101326;23;90928;-76
2023/04/02 02:55:23;;;;;;;3.53;2.55;;;2.70;99.90;;;;;;6101565;23;91346;-76
2023/04/02 02:58:19;;;;;;;3.40;2.47;;;2.70;99.90;;;;;;6101719;23;88895;-76
2023/04/02 03:00:56;;;;;;;6.00;2.33;;;2.70;99.90;;;;;;6101643;23;90652;-76
2023/04/02 03:03:27;;;;;;;4.97;2.33;;;2.70;99.90;;;;;;6052697;23;91103;-76
2023/04/02 03:06:19;;;;;;;6.75;2.80;;;2.70;99.90;;;;;;6101876;23;89790;-76
2023/04/02 03:09:21;;;;;;;3.13;2.38;;;2.80;99.90;;;;;;6101472;23;89072;-76
2023/04/02 03:12:10;;;;;;;5.80;3.08;;;2.80;99.90;;;;;;6101163;23;90797;-76
2023/04/02 03:15:02;;;;;;;4.85;2.30;;;2.90;99.90;;;;;;6100730;23;92069;-76
2023/04/02 03:17:52;;;;;;;6.70;3.42;;;2.90;99.90;;;;;;6076602;23;91684;-76
2023/04/02 03:20:31;;;;;;;6.93;2.53;;;2.80;99.90;;;;;;6101254;23;89137;-76
2023/04/02 03:23:04;;;;;;;5.35;2.35;;;2.90;99.90;;;;;;6076830;23;90615;-76
2023/04/02 03:26:05;;;;;;;3.83;2.38;;;2.90;99.90;;;;;;6101180;23;90493;-76
2023/04/02 03:28:42;;;;;;;5.88;2.70;;;2.80;99.90;;;;;;6052510;23;91202;-76
2023/04/02 03:31:18;;;;;;;4.32;1.88;;;2.90;99.90;;;;;;6127781;23;88361;-76
2023/04/02 03:34:00;;;;;;;2.55;1.83;;;2.80;99.90;;;;;;6101935;23;88191;-76
2023/04/02 03:36:47;;;;;;;3.28;1.92;;;2.90;99.90;;;;;;6127684;23;88735;-76
2023/04/02 03:39:29;;;;;;;3.45;1.88;;;2.90;99.90;;;;;;6101438;23;89940;-76
2023/04/02 03:42:19;;;;;;;5.40;2.45;;;3.00;99.90;;;;;;6076101;23;89682;-76
2023/04/02 03:44:59;;;;;;;5.45;2.28;;;2.90;99.90;;;;;;6076094;23;90461;-76
2023/04/02 03:47:30;;;;;;;6.28;2.22;;;2.90;99.90;;;;;;6101101;23;90139;-76
2023/04/02 03:50:16;;;;;;;4.30;1.83;;;2.80;99.90;;;;;;6076075;23;91419;-76
2023/04/02 03:52:44;;;;;;;3.08;1.90;;;2.80;99.90;;;;;;6076561;23;89075;-76
2023/04/02 03:55:37;;;;;;;4.15;2.53;;;2.70;99.90;;;;;;6101079;23;90436;-77
2023/04/02 03:58:16;;;;;;;3.05;1.67;;;2.80;99.90;;;;;;6077132;23;91080;-76
2023/04/02 04:01:02;;;;;;;2.50;1.58;;;2.60;99.90;;;;;;6101135;23;91000;-76
2023/04/02 04:03:50;;;;;;;3.65;1.45;;;2.60;99.90;;;;;;6076838;23;88933;-76
2023/04/02 04:06:28;;;;;;;3.08;1.65;;;2.60;99.90;;;;;;6127436;23;88336;-76
2023/04/02 04:09:07;;;;;;;5.10;2.00;;;2.50;99.90;;;;;;6100324;23;91824;-76
2023/04/02 04:11:38;;;;;;;4.28;2.20;;;2.50;99.90;;;;;;6126976;23;89241;-76
2023/04/02 04:14:28;;;;;;;;;;;2.50;99.90;;;;;;6077837;23;89094;-76
2023/04/02 04:17:03;;;;;;;3.47;1.50;;;2.40;99.90;;;;;;6102007;23;89860;-76
2023/04/02 04:19:47;;;;;;;5.30;1.70;;;2.30;99.90;;;;;;6100997;23;91190;-76
2023/04/02 04:22:28;;;;;;;5.65;2.17;;;2.30;99.90;;;;;;6100677;23;90593;-76
2023/04/02 04:25:16;;;;;;;3.80;1.85;;;2.30;99.90;;;;;;6100848;23;89012;-76
2023/04/02 04:28:11;;;;;;;6.05;1.80;;;2.30;99.90;;;;;;6127490;23;88212;-76
2023/04/02 04:30:52;;;;;;;7.05;2.20;;;2.20;99.90;;;;;;6102292;23;91188;-76
2023/04/02 04:33:33;;;;;;;1.73;1.45;;;2.20;99.90;;;;;;6102007;23;90560;-76
2023/04/02 04:36:13;;;;;;;3.97;1.30;;;2.10;99.90;;;;;;6101431;23;89040;-76
2023/04/02 04:38:44;;;;;;;6.55;1.70;;;2.00;99.90;;;;;;6078048;23;90564;-76
2023/04/02 04:41:16;;;;;;;2.10;1.40;;;2.00;99.90;;;;;;6102241;23;91336;-76
2023/04/02 04:44:05;;;;;;;7.30;1.70;;;2.00;99.90;;;;;;6101892;23;90899;-76
2023/04/02 04:46:43;;;;;;;6.65;2.08;;;2.00;99.90;;;;;;6102246;23;89180;-76
2023/04/02 04:49:18;;;;;;;4.00;1.50;;;1.90;99.90;;;;;;6101953;23;90256;-76
2023/04/02 04:52:06;;;;;;;4.60;2.22;;;1.90;99.90;;;;;;6101979;23;90923;-76
2023/04/02 04:54:37;;;;;;;3.72;1.48;;;1.90;99.90;;;;;;6102257;23;89566;-76
2023/04/02 04:57:21;;;;;;;2.10;1.30;;;1.80;99.90;;;;;;6128942;23;88467;-76
2023/04/02 04:59:59;;;;;;;4.07;1.65;;;1.80;99.90;;;;;;6077591;23;90085;-76
2023/04/02 05:02:37;;;;;;;4.93;1.52;;;1.80;99.90;;;;;;6101677;23;91859;-76
2023/04/02 05:05:16;;;;;;;3.20;1.75;;;1.80;99.90;;;;;;6101721;23;91916;-76
2023/04/02 05:07:50;;;;;;;6.15;1.77;;;1.80;99.90;;;;;;6077925;23;89035;-76
2023/04/02 05:10:17;;;;;;;5.57;2.05;;;1.80;99.90;;;;;;6102020;23;90744;-76
2023/04/02 05:12:55;;;;;;;4.40;1.58;;;1.80;99.90;;;;;;6101844;23;91072;-76
2023/04/02 05:15:32;;;;;;;6.90;1.58;;;1.80;99.90;;;;;;6077746;23;91116;-76
2023/04/02 05:18:10;;;;;;;5.10;1.40;;;1.80;99.90;;;;;;6102068;23;89062;-76
2023/04/02 05:20:53;;;;;;;3.38;1.70;;;1.70;99.90;;;;;;6102714;23;90677;-76
2023/04/02 05:23:33;;;;;;;3.50;1.25;;;1.80;99.90;;;;;;6102019;23;90264;-76
2023/04/02 05:26:05;;;;;;;2.65;1.08;;;1.80;99.90;;;;;;6101788;23;90740;-76
2023/04/02 05:28:43;;;;;;;4.45;1.58;;;1.80;99.90;;;;;;6077523;23;89090;-76
2023/04/02 05:31:45;;;;;;;2.95;1.38;;;1.80;99.90;;;;;;6077605;23;90735;-76
2023/04/02 05:34:20;;;;;;;3.95;1.60;;;1.80;99.90;;;;;;6097413;23;87972;-76
2023/04/02 05:36:49;;;;;;;4.88;1.67;;;1.80;99.90;;;;;;6102074;23;91100;-76
2023/04/02 05:39:21;;;;;;;7.03;2.00;;;1.80;99.90;;;;;;6101640;23;88775;-77
2023/04/02 05:42:06;;;;;;;3.15;1.50;;;1.90;99.90;;;;;;6101725;23;90595;-77
2023/04/02 05:45:07;;;;;;;3.28;1.40;;;1.90;99.90;;;;;;6101918;23;91067;-77
2023/04/02 05:47:39;;;;;;;7.53;1.35;;;2.00;99.90;;;;;;6102060;23;90472;-77
2023/04/02 05:50:20;;;;;;;5.72;1.95;;;2.00;99.90;;;;;;6101680;23;89079;-76
2023/04/02 05:52:55;;;;;;;2.45;1.30;;;2.10;99.90;;;;;;6101726;23;90227;-77
2023/04/02 05:55:35;;;;;;;1.45;1.25;;;2.10;99.90;;;;;;6101525;23;92058;-77
2023/04/02 05:58:16;;;;;;;3.85;1.88;;;2.20;99.90;;;;;;6101798;23;91749;-77
2023/04/02 06:00:50;;;;;;;;;;;2.30;99.90;;;;;;6128986;23;87992;-77
2023/04/02 06:03:25;;;;;;;5.20;1.67;;;2.20;99.90;;;;;;6103425;23;90781;-77
2023/04/02 06:06:00;;;;;;;3.50;1.90;;;2.30;99.90;;;;;;6101876;23;91472;-77
2023/04/02 06:08:35;;;;;;;3.83;1.65;;;2.50;99.90;;;;;;6077652;23;91112;-77
2023/04/02 06:11:08;;;;;;;4.15;1.30;;;2.70;99.90;;;;;;6127541;23;87888;-77
2023/04/02 06:13:37;;;;;;;3.42;1.33;;;3.00;99.90;;;;;;6102947;23;88240;-77
2023/04/02 06:16:06;;;;;;;2.03;1.15;;;3.50;99.90;;;;;;6101317;23;91033;-77
2023/04/02 06:18:35;;;;;;;2.33;1.20;;;4.00;99.90;;;;;;6077154;23;89503;-77
2023/04/02 06:21:04;;;;;;;6.22;1.45;;;4.80;99.90;;;;;;6100830;23;89009;-77
2023/04/02 06:23:50;;;;;;;3.58;1.50;;;5.40;99.90;;;;;;6077071;23;90636;-77
2023/04/02 06:26:28;;;;;;;4.43;1.20;;;6.30;99.90;;;;;;6128102;23;88511;-78
2023/04/02 06:29:02;;;;;;;3.90;1.80;;;6.80;99.90;;;;;;6077602;23;90041;-77
2023/04/02 06:31:44;;;;;;;;;;;7.10;99.90;;;;;;6102496;23;89494;-77
2023/04/02 06:34:17;;;;;;;7.20;1.70;;;7.30;99.90;;;;;;6103096;23;90936;-78
2023/04/02 06:37:03;;;;;;;2.72;1.50;;;7.90;99.90;;;;;;6101697;23;91115;-78
2023/04/02 06:39:32;;;;;;;5.50;1.50;;;8.10;99.90;;;;;;6102255;23;90902;-78
2023/04/02 06:42:33;;;;;;;4.63;2.00;;;8.30;99.90;;;;;;6054449;23;88709;-78
2023/04/02 06:45:23;;;;;;;5.53;1.75;;;8.40;99.70;;;;;;6101582;23;91177;-78
2023/04/02 06:48:16;;;;;;;2.85;1.35;;;8.10;99.90;;;;;;6080883;23;90963;-78
2023/04/02 06:51:00;;;;;;;4.63;1.90;;;7.70;99.90;;;;;;6101104;23;91784;-78
2023/04/02 06:53:36;;;;;;;1.65;1.40;;;7.50;99.90;;;;;;6101757;23;88983;-78
2023/04/02 06:56:15;;;;;;;5.07;1.85;;;7.30;99.90;;;;;;6101448;23;90624;-78
2023/04/02 06:58:42;;;;;;;4.93;1.90;;;7.40;99.90;;;;;;6101711;23;90987;-78
2023/04/02 07:01:16;;;;;;;4.40;1.92;;;7.60;99.90;;;;;;6076722;23;90998;-78
2023/04/02 07:03:44;;;;;;;4.53;1.52;;;7.70;99.90;;;;;;6101600;23;88962;-77
2023/04/02 07:06:26;;;;;;;4.60;1.25;;;7.70;99.90;;;;;;6080492;23;90832;-78
2023/04/02 07:08:56;;;;;;;4.32;1.75;;;7.70;99.90;;;;;;6077625;23;91433;-78
2023/04/02 07:11:25;;;;;;;6.20;1.70;;;7.60;99.90;;;;;;6076441;23;90938;-77
2023/04/02 07:13:55;;;;;;;4.35;1.95;;;7.50;99.90;;;;;;6100720;23;88906;-78
2023/04/02 07:16:25;;;;;;;3.95;1.45;;;7.40;99.90;;;;;;6076780;23;90795;-78
2023/04/02 07:18:54;;;;;;;2.78;1.85;;;7.20;99.90;;;;;;6076851;23;91016;-78
2023/04/02 07:21:22;;;;;;;2.92;1.80;;;7.30;99.90;;;;;;6100740;23;90843;-78
2023/04/02 07:23:49;;;;;;;3.67;1.95;;;7.30;99.90;;;;;;6101320;23;89355;-77
2023/04/02 07:26:21;;;;;;;1.63;1.20;;;7.50;99.90;;;;;;6101432;23;88305;-77
2023/04/02 07:28:48;;;;;;;4.72;1.98;;;7.60;99.90;;;;;;6076905;23;90323;-77
2023/04/02 07:31:22;;;;;;;3.25;1.67;;;7.90;99.90;;;;;;6101841;23;88721;-77
2023/04/02 07:33:51;;;;;;;2.53;1.90;;;8.20;99.90;;;;;;6101502;23;89342;-77
2023/04/02 07:36:20;;;;;;;4.30;2.33;;;8.30;99.60;;;;;;6100674;23;89764;-77
2023/04/02 07:38:48;;;;;;;3.90;2.28;;;8.60;99.00;;;;;;6127134;23;89496;-77
2023/04/02 07:41:16;;;;;;;4.43;2.40;;;9.00;98.70;;;;;;6075852;23;91795;-77
2023/04/02 07:43:43;;;;;;;1.88;1.40;;;9.10;98.10;;;;;;6100921;23;89433;-77
2023/04/02 07:46:13;;;;;;;4.00;1.60;;;9.30;97.50;;;;;;6101275;23;88383;-77
2023/04/02 07:48:40;;;;;;;3.72;1.80;;;9.30;97.30;;;;;;6100619;23;93145;-78
2023/04/02 07:51:19;;;;;;;2.35;2.15;;;9.40;97.20;;;;;;6101121;23;91149;-77
2023/04/02 07:53:48;;;;;;;4.28;1.48;;;9.20;97.30;;;;;;6127608;23;87962;-77
2023/04/02 07:56:18;;;;;;;3.33;1.48;;;9.00;98.20;;;;;;6100485;23;100478;-77
2023/04/02 07:58:45;;;;;;;3.85;1.90;;;8.70;97.70;;;;;;6127394;23;88839;-78
2023/04/02 08:01:24;;;;;;;3.80;3.22;;;8.50;98.50;;;;;;6127116;23;88074;-78
2023/04/02 08:03:53;;;;;;;2.75;1.98;;;8.80;98.60;;;;;;6100931;23;88667;-78
2023/04/02 08:06:21;;;;;;;4.47;3.83;;;8.70;98.70;;;;;;6128573;23;88575;-78
2023/04/02 08:08:49;;;;;;;7.05;6.65;;;9.10;98.00;;;;;;6128742;23;88538;-77
2023/04/02 08:11:16;;;;;;;6.05;5.50;;;9.10;97.10;;;;;;6127816;23;88036;-76
2023/04/02 08:13:43;;;;;;;6.82;6.50;;;9.20;96.80;;;;;;6128915;23;87912;-78
2023/04/02 08:16:10;;;;;;;5.57;5.18;;;9.90;96.70;;;;;;6078328;23;88110;-77
2023/04/02 08:18:37;;;;;;;6.78;6.18;;;10.50;96.40;;;;;;6077752;23;91165;-77
2023/04/02 08:21:08;;;;;;;10.80;10.10;;;11.00;95.10;;;;;;6129273;23;87443;-77
2023/04/02 08:23:36;;;;;;;7.28;6.85;;;11.20;93.80;;;;;;6127542;23;88351;-77
2023/04/02 08:26:04;;;;;;;5.45;2.83;;;11.50;93.70;;;;;;6128585;23;88213;-78
2023/04/02 08:28:31;;;;;;;6.82;6.28;;;11.90;93.10;;;;;;6127592;23;96469;-78
2023/04/02 08:30:59;;;;;;;8.00;7.50;;;12.10;92.70;;;;;;6102056;23;91995;-77
2023/04/02 08:33:26;;;;;;;7.57;7.15;;;12.30;92.30;;;;;;6128428;23;88013;-78
2023/04/02 08:35:53;;;;;;;19.33;18.02;;;12.30;92.40;;;;;;6078310;23;88167;-77
2023/04/02 08:38:20;;;;;;;6.78;6.40;;;11.90;90.90;;;;;;6077026;23;88824;-78
2023/04/02 08:40:55;;;;;;;3.08;1.33;;;11.90;91.30;;;;;;6102041;23;90942;-77
2023/04/02 08:43:52;;;;;;;2.75;1.48;;;11.90;91.60;;;;;;6128405;23;87957;-78
2023/04/02 08:46:26;;;;;;;4.57;1.50;;;11.50;91.10;;;;;;6102380;23;90724;-78
2023/04/02 08:48:57;;;;;;;2.58;1.75;;;11.10;91.90;;;;;;6102277;23;91155;-77
2023/04/02 08:51:32;;;;;;;1.75;1.13;;;10.50;92.10;;;;;;6102247;23;89013;-78
2023/04/02 08:54:07;;;;;;;3.70;1.27;;;10.00;93.10;;;;;;6101853;23;88747;-77
2023/04/02 08:56:55;;;;;;;5.82;1.52;;;9.30;94.20;;;;;;6128283;23;87986;-77
2023/04/02 08:59:28;;;;;;;2.30;1.60;;;8.90;95.00;;;;;;6101805;23;91541;-77
2023/04/02 09:02:04;;;;;;;2.80;1.20;;;8.70;95.70;;;;;;6128665;23;88595;-77
2023/04/02 09:04:32;;;;;;;3.13;1.50;;;8.40;96.90;;;;;;6128337;23;88477;-78
2023/04/02 09:06:59;;;;;;;10.95;1.90;;;8.30;97.70;;;;;;6078081;23;94748;-77
2023/04/02 09:09:26;;;;;;;3.38;1.42;;;8.00;97.60;;;;;;6128148;23;88656;-78
2023/04/02 09:11:53;;;;;;;1.60;1.20;;;7.90;98.20;;;;;;6102602;23;88608;-77
2023/04/02 09:14:37;;;;;;;8.43;1.50;;;7.70;98.60;;;;;;6101463;23;89351;-77
2023/04/02 09:17:18;;;;;;;1.45;1.00;;;7.60;98.80;;;;;;6102029;23;91178;-77
2023/04/02 09:20:17;;;;;;;2.78;1.00;;;7.60;99.40;;;;;;6076744;23;91977;-77
2023/04/02 09:22:47;;;;;;;1.98;1.10;;;7.50;99.50;;;;;;6077246;23;91866;-78
2023/04/02 09:25:20;;;;;;;1.90;1.10;;;7.50;99.70;;;;;;6101578;23;88286;-78
2023/04/02 09:27:49;;;;;;;2.30;1.10;;;7.50;99.90;;;;;;6128550;23;88386;-77
2023/04/02 09:30:28;;;;;;;4.10;1.67;;;7.40;99.40;;;;;;6128295;23;89132;-77
2023/04/02 09:32:57;;;;;;;3.50;1.35;;;7.60;99.90;;;;;;6102402;23;89402;-77
2023/04/02 09:35:27;;;;;;;4.13;1.80;;;7.60;99.50;;;;;;6128063;23;90427;-77
2023/04/02 09:38:12;;;;;;;3.35;1.20;;;7.80;99.90;;;;;;6102694;23;87421;-77
2023/04/02 09:40:48;;;;;;;2.65;1.25;;;7.80;99.20;;;;;;6101961;23;91234;-78
2023/04/02 09:43:20;;;;;;;3.40;2.20;;;7.80;99.40;;;;;;6102112;23;88532;-78
2023/04/02 09:45:59;;;;;;;3.13;1.20;;;7.70;99.60;;;;;;6101398;23;88677;-77
2023/04/02 09:48:59;;;;;;;2.08;1.88;;;7.70;99.90;;;;;;6127002;23;88376;-78
2023/04/02 09:51:30;;;;;;;3.67;1.70;;;7.80;99.90;;;;;;6123685;23;88668;-78
2023/04/02 09:54:03;;;;;;;1.83;1.08;;;7.90;99.90;;;;;;6101519;23;91213;-78
2023/04/02 09:56:32;;;;;;;2.70;1.13;;;8.00;99.90;;;;;;6102064;23;88005;-78
2023/04/02 09:59:11;;;;;;;3.33;1.30;;;8.00;99.90;;;;;;6101469;23;91033;-77
2023/04/02 10:01:43;;;;;;;1.67;1.00;;;8.10;99.60;;;;;;6101582;23;91421;-78
2023/04/02 10:04:35;;;;;;;3.67;1.40;;;8.10;99.50;;;;;;6102341;23;91319;-78
2023/04/02 10:07:05;;;;;;;4.25;1.70;;;8.20;99.10;;;;;;6102234;23;87989;-78
2023/04/02 10:09:35;;;;;;;5.18;1.75;;;8.10;99.00;;;;;;6127998;23;88269;-77
2023/04/02 10:12:09;;;;;;;1.80;1.23;;;8.20;99.30;;;;;;6077246;23;89497;-78
2023/04/02 10:14:42;;;;;;;3.45;1.50;;;8.20;98.70;;;;;;6127842;23;89291;-77
2023/04/02 10:17:22;;;;;;;2.28;1.50;;;8.30;98.70;;;;;;6128528;23;88397;-78
2023/04/02 10:20:01;;;;;;;3.40;1.48;;;8.30;98.70;;;;;;6128045;23;88544;-78
2023/04/02 10:22:28;;;;;;;2.00;1.60;;;8.40;98.70;;;;;;6128033;23;89901;-79
2023/04/02 10:24:57;;;;;;;3.00;1.60;;;8.30;98.50;;;;;;6128076;23;88321;-78
2023/04/02 10:27:32;;;;;;;1.58;1.10;;;8.40;98.80;;;;;;6127580;23;87903;-78
2023/04/02 10:30:25;;;;;;;3.03;1.20;;;8.40;98.80;;;;;;6102469;23;88293;-78
2023/04/02 10:33:12;;;;;;;4.13;1.35;;;8.50;99.30;;;;;;6101689;23;90515;-78
2023/04/02 10:36:18;;;;;;;2.65;1.20;;;8.60;98.70;;;;;;6128030;23;89049;-78
2023/04/02 10:39:00;;;;;;;3.50;1.55;;;8.70;98.30;;;;;;6127483;23;88614;-78
2023/04/02 10:41:52;;;;;;;3.97;1.10;;;8.70;98.50;;;;;;6128208;23;88247;-78
2023/04/02 10:44:37;;;;;;;1.85;1.10;;;8.70;98.30;;;;;;6102062;23;88796;-78
2023/04/02 10:47:25;;;;;;;2.83;1.20;;;8.80;98.60;;;;;;6101447;23;91092;-78
2023/04/02 10:50:00;;;;;;;2.53;1.25;;;8.80;98.20;;;;;;6101891;23;87891;-78
2023/04/02 10:52:32;;;;;;;3.42;1.30;;;8.80;98.40;;;;;;6128022;23;88578;-78
2023/04/02 10:55:07;;;;;;;2.92;1.40;;;9.00;98.60;;;;;;6101966;23;89660;-78
2023/04/02 10:57:42;;;;;;;3.60;1.33;;;9.10;97.90;;;;;;6128229;23;88304;-78
2023/04/02 11:00:15;;;;;;;2.03;1.42;;;9.20;98.40;;;;;;6128068;23;87938;-78
2023/04/02 11:02:42;;;;;;;3.60;1.25;;;9.30;98.70;;;;;;6101453;23;88214;-78
2023/04/02 11:05:22;;;;;;;2.25;0.75;;;9.30;98.50;;;;;;6127259;23;88707;-78
2023/04/02 11:08:00;;;;;;;5.22;1.30;;;9.40;98.50;;;;;;6127693;23;89350;-78
2023/04/02 11:10:31;;;;;;;1.40;0.98;;;9.60;98.90;;;;;;6101954;23;88040;-78
2023/04/02 11:13:12;;;;;;;2.95;1.42;;;9.80;98.70;;;;;;6096192;23;88249;-78
2023/04/02 11:15:39;;;;;;;1.35;1.23;;;10.00;98.00;;;;;;6096342;23;88586;-78
2023/04/02 11:18:18;;;;;;;4.85;1.60;;;10.10;97.60;;;;;;6098111;23;88423;-78
2023/04/02 11:21:01;;;;;;;3.30;1.17;;;10.00;97.50;;;;;;6096283;23;89679;-78
2023/04/02 11:23:33;;;;;;;3.33;1.20;;;9.90;96.70;;;;;;6098601;23;88296;-78
2023/04/02 11:26:37;;;;;;;1.73;1.08;;;9.80;97.50;;;;;;6096001;23;91332;-78
2023/04/02 11:29:12;;;;;;;1.77;0.93;;;9.70;97.00;;;;;;6096332;23;90009;-78
2023/04/02 11:31:40;;;;;;;3.53;1.67;;;9.60;97.50;;;;;;6095787;23;89475;-78
2023/04/02 11:34:12;;;;;;;5.53;1.60;;;9.60;97.60;;;;;;6096564;23;88455;-78
2023/04/02 11:36:52;;;;;;;3.97;1.45;;;9.70;97.80;;;;;;6096614;23;88728;-79
2023/04/02 11:39:53;;;;;;;1.40;1.02;;;9.90;97.60;;;;;;6099202;23;88553;-78
2023/04/02 11:42:22;;;;;;;3.58;1.30;;;9.90;97.40;;;;;;6039508;23;89684;-78
2023/04/02 11:44:50;;;;;;;3.83;1.25;;;9.90;97.90;;;;;;6098869;23;88311;-78
2023/04/02 11:47:22;;;;;;;4.00;1.25;;;10.00;97.70;;;;;;6097555;23;88549;-78
2023/04/02 11:50:00;;;;;;;4.43;1.40;;;10.20;97.90;;;;;;6099237;23;87695;-78
2023/04/02 11:52:35;;;;;;;3.33;1.23;;;10.30;97.50;;;;;;6097700;23;88049;-78
2023/04/02 11:55:23;;;;;;;2.13;1.23;;;10.30;96.50;;;;;;6098864;23;88605;-78
2023/04/02 11:57:56;;;;;;;3.58;1.30;;;10.20;96.40;;;;;;6096860;23;89508;-78
2023/04/02 12:00:57;;;;;;;3.38;1.30;;;10.00;96.40;;;;;;6097556;23;89214;-78
2023/04/02 12:03:43;;;;;;;3.03;1.30;;;10.10;96.70;;;;;;6099069;23;87898;-78
2023/04/02 12:06:31;;;;;;;3.85;1.20;;;10.00;96.40;;;;;;6099070;23;88294;-78
2023/04/02 12:09:03;;;;;;;4.90;1.80;;;10.10;96.50;;;;;;6098783;23;88800;-78
2023/04/02 12:11:40;;;;;;;1.60;1.30;;;10.20;96.60;;;;;;6097085;23;88595;-78
2023/04/02 12:14:41;;;;;;;5.35;1.30;;;10.40;97.20;;;;;;6098851;23;87886;-78
2023/04/02 12:17:27;;;;;;;3.58;1.10;;;10.70;96.40;;;;;;6099162;23;88674;-78
2023/04/02 12:20:20;;;;;;;1.40;0.93;;;10.90;96.20;;;;;;6098702;23;88882;-78
2023/04/02 12:22:50;;;;;;;1.40;1.30;;;10.70;95.60;;;;;;6098701;23;89007;-78
2023/04/02 12:25:25;;;;;;;1.73;1.00;;;10.60;95.90;;;;;;6097004;23;88676;-78
2023/04/02 12:28:13;;;;;;;2.50;1.10;;;10.60;96.20;;;;;;6098991;23;88051;-78
2023/04/02 12:30:40;;;;;;;2.33;1.20;;;10.70;96.10;;;;;;6099128;23;88728;-78
2023/04/02 12:33:36;;;;;;;2.25;0.95;;;10.60;96.00;;;;;;6072954;23;88221;-78
2023/04/02 12:36:08;;;;;;;3.53;1.20;;;10.70;96.20;;;;;;6095877;23;88056;-78
2023/04/02 12:38:47;;;;;;;2.42;1.17;;;10.60;96.90;;;;;;6098937;23;88220;-78
2023/04/02 12:41:35;;;;;;;5.10;1.17;;;10.70;96.10;;;;;;6073912;23;90803;-78
2023/04/02 12:44:15;;;;;;;1.90;0.90;;;10.90;95.80;;;;;;6073159;23;91151;-78
2023/04/02 12:46:43;;;;;;;1.77;1.00;;;10.90;95.60;;;;;;6097563;23;87985;-78
2023/04/02 12:49:35;;;;;;;2.80;1.35;;;11.00;96.10;;;;;;6096748;23;88511;-78
2023/04/02 12:52:31;;;;;;;1.77;1.02;;;11.10;96.80;;;;;;6098152;23;89399;-78
2023/04/02 12:55:02;;;;;;;3.78;1.20;;;11.10;96.10;;;;;;6094471;23;91214;-78
2023/04/02 12:57:29;;;;;;;2.63;1.40;;;11.20;95.60;;;;;;6097509;23;88028;-78
2023/04/02 13:00:00;;;;;;;2.97;1.17;;;11.20;95.60;;;;;;6097212;23;88464;-78
2023/04/02 13:02:30;;;;;;;2.65;1.17;;;11.10;95.50;;;;;;6098830;23;88816;-78
2023/04/02 13:05:00;;;;;;;2.80;1.10;;;11.10;95.70;;;;;;6098534;23;88473;-78
2023/04/02 13:07:32;;;;;;;1.48;1.00;;;11.00;95.30;;;;;;6096703;23;89584;-78
2023/04/02 13:10:02;;;;;;;1.48;0.88;;;11.00;95.70;;;;;;6099061;23;88067;-78
2023/04/02 13:12:39;;;;;;;2.45;1.10;;;11.00;95.30;;;;;;6116941;23;89766;-78
2023/04/02 13:15:29;;;;;;;3.92;1.25;;;11.00;95.50;;;;;;6102145;23;88065;-78
2023/04/02 13:18:05;;;;;;;1.80;1.20;;;11.00;95.00;;;;;;6101351;23;89611;-78
2023/04/02 13:20:40;;;;;;;2.42;1.00;;;10.90;95.30;;;;;;6101547;23;89630;-78
2023/04/02 13:23:26;;;;;;;3.28;1.08;;;10.90;95.50;;;;;;6102080;23;87906;-78
2023/04/02 13:25:52;;;;;;;1.65;1.00;;;11.00;95.10;;;;;;6102053;23;89348;-78
2023/04/02 13:28:20;;;;;;;1.15;1.05;;;11.00;95.10;;;;;;6128288;23;88040;-78
2023/04/02 13:30:47;;;;;;;5.00;1.77;;;10.80;94.80;;;;;;6101811;23;90753;-78
2023/04/02 13:33:14;;;;;;;1.08;0.98;;;10.90;95.10;;;;;;6077015;23;91611;-75
2023/04/02 13:35:42;;;;;;;2.45;1.40;;;11.00;95.10;;;;;;6102449;23;94953;-75
2023/04/02 13:38:09;;;;;;;1.77;0.90;;;11.00;95.30;;;;;;6077004;23;89427;-75
2023/04/02 13:40:36;;;;;;;3.28;1.10;;;11.00;94.70;;;;;;6101736;23;90918;-75
2023/04/02 13:43:05;;;;;;;2.50;1.13;;;11.00;94.40;;;;;;6101100;23;91968;-75
2023/04/02 13:45:35;;;;;;;1.23;1.13;;;11.00;94.70;;;;;;6101495;23;91995;-75